createdAt,value
2017-09-09T00:00:01.801Z,97750
2017-09-09T00:02:29.871Z,97741
2017-09-09T00:04:58.964Z,97733
2017-09-09T00:07:27.041Z,97735
2017-09-09T00:09:55.129Z,97727
2017-09-09T00:12:23.980Z,97732
2017-09-09T00:14:52.080Z,97724
2017-09-09T00:17:20.158Z,97714
2017-09-09T00:19:48.240Z,97712
2017-09-09T00:22:16.524Z,97713
2017-09-09T00:24:44.596Z,97709
2017-09-09T00:27:12.712Z,97698
2017-09-09T00:29:40.786Z,97706
2017-09-09T00:32:08.885Z,97700
2017-09-09T00:34:36.960Z,97693
2017-09-09T00:37:05.041Z,97698
2017-09-09T00:39:33.117Z,97699
2017-09-09T00:42:01.982Z,97701
2017-09-09T00:44:30.056Z,97689
2017-09-09T00:46:58.144Z,97682
2017-09-09T00:49:26.998Z,97685
2017-09-09T00:51:55.093Z,97676
2017-09-09T00:54:23.176Z,97679
2017-09-09T00:56:51.252Z,97673
2017-09-09T00:59:19.363Z,97667
2017-09-09T01:01:47.449Z,97657
2017-09-09T01:04:15.543Z,97657
2017-09-09T01:06:43.632Z,97648
2017-09-09T01:09:11.724Z,97646
2017-09-09T01:11:39.808Z,97645
2017-09-09T01:14:07.908Z,97645
2017-09-09T01:16:35.988Z,97643
2017-09-09T01:19:04.079Z,97639
2017-09-09T01:21:32.178Z,97645
2017-09-09T01:24:00.258Z,97628
2017-09-09T01:26:28.344Z,97625
2017-09-09T01:28:56.429Z,97622
2017-09-09T01:31:24.521Z,97623
2017-09-09T01:33:52.629Z,97615
2017-09-09T01:36:20.715Z,97611
2017-09-09T01:38:49.560Z,97604
2017-09-09T01:41:17.655Z,97613
2017-09-09T01:43:45.723Z,97603
2017-09-09T01:46:13.812Z,97595
2017-09-09T01:48:41.887Z,97598
2017-09-09T01:51:09.972Z,97594
2017-09-09T01:53:38.051Z,97577
2017-09-09T01:56:06.903Z,97586
2017-09-09T01:58:34.987Z,97577
2017-09-09T02:01:03.070Z,97570
2017-09-09T02:03:31.152Z,97569
2017-09-09T02:05:59.240Z,97571
2017-09-09T02:08:27.315Z,97557
2017-09-09T02:10:55.523Z,97563
2017-09-09T02:13:23.596Z,97561
2017-09-09T02:15:51.683Z,97549
2017-09-09T02:18:19.763Z,97539
2017-09-09T02:20:47.852Z,97536
2017-09-09T02:23:15.935Z,97538
2017-09-09T02:25:44.796Z,97536
2017-09-09T02:28:12.875Z,97541
2017-09-09T02:30:41.024Z,97526
2017-09-09T02:33:09.105Z,97533
2017-09-09T02:35:37.187Z,97527
2017-09-09T02:38:05.269Z,97537
2017-09-09T02:40:33.351Z,97534
2017-09-09T02:43:02.211Z,97528
2017-09-09T02:45:30.297Z,97530
2017-09-09T02:47:58.381Z,97525
2017-09-09T02:50:26.469Z,97516
2017-09-09T02:52:54.548Z,97511
2017-09-09T02:55:22.623Z,97503
2017-09-09T02:57:51.475Z,97503
2017-09-09T03:00:19.564Z,97497
2017-09-09T03:02:47.657Z,97501
2017-09-09T03:05:15.735Z,97500
2017-09-09T03:07:43.829Z,97495
2017-09-09T03:10:12.020Z,97491
2017-09-09T03:12:40.112Z,97481
2017-09-09T03:15:08.197Z,97489
2017-09-09T03:17:36.288Z,97495
2017-09-09T03:20:05.137Z,97491
2017-09-09T03:22:33.224Z,97490
2017-09-09T03:25:01.296Z,97479
2017-09-09T03:27:29.387Z,97482
2017-09-09T03:29:57.468Z,97484
2017-09-09T03:32:25.553Z,97474
2017-09-09T03:34:54.410Z,97471
2017-09-09T03:37:22.497Z,97478
2017-09-09T03:39:50.580Z,97484
2017-09-09T03:42:19.479Z,97487
2017-09-09T03:44:47.603Z,97486
2017-09-09T03:47:15.691Z,97469
2017-09-09T03:49:43.780Z,97460
2017-09-09T03:52:11.869Z,97459
2017-09-09T03:54:39.947Z,97444
2017-09-09T03:57:08.802Z,97438
2017-09-09T03:59:36.886Z,97445
2017-09-09T04:02:04.976Z,97441
2017-09-09T04:04:33.064Z,97433
2017-09-09T04:07:01.157Z,97438
2017-09-09T04:09:29.239Z,97437
2017-09-09T04:11:57.336Z,97429
2017-09-09T04:14:25.433Z,97440
2017-09-09T04:16:54.294Z,97432
2017-09-09T04:19:22.380Z,97434
2017-09-09T04:21:50.468Z,97424
2017-09-09T04:24:18.557Z,97424
2017-09-09T04:26:47.412Z,97420
2017-09-09T04:29:15.484Z,97409
2017-09-09T04:31:43.580Z,97407
2017-09-09T04:34:12.437Z,97410
2017-09-09T04:36:40.524Z,97401
2017-09-09T04:39:08.622Z,97416
2017-09-09T04:41:37.481Z,97412
2017-09-09T04:44:05.564Z,97403
2017-09-09T04:46:33.653Z,97398
2017-09-09T04:49:01.725Z,97411
2017-09-09T04:51:29.812Z,97400
2017-09-09T04:53:58.663Z,97408
2017-09-09T04:56:26.751Z,97397
2017-09-09T04:58:54.831Z,97391
2017-09-09T05:01:22.923Z,97385
2017-09-09T05:03:51.769Z,97388
2017-09-09T05:06:19.860Z,97389
2017-09-09T05:08:47.944Z,97389
2017-09-09T05:11:16.037Z,97385
2017-09-09T05:13:44.115Z,97399
2017-09-09T05:16:12.210Z,97391
2017-09-09T05:18:40.280Z,97398
2017-09-09T05:21:08.379Z,97406
2017-09-09T05:23:36.455Z,97403
2017-09-09T05:26:04.548Z,97401
2017-09-09T05:28:32.624Z,97398
2017-09-09T05:31:00.700Z,97396
2017-09-09T05:33:28.792Z,97390
2017-09-09T05:35:57.638Z,97394
2017-09-09T05:38:25.736Z,97386
2017-09-09T05:40:54.580Z,97392
2017-09-09T05:43:22.670Z,97390
2017-09-09T05:45:50.767Z,97380
2017-09-09T05:48:18.852Z,97384
2017-09-09T05:50:46.945Z,97385
2017-09-09T05:53:15.034Z,97380
2017-09-09T05:55:43.125Z,97386
2017-09-09T05:58:11.213Z,97380
2017-09-09T06:00:39.291Z,97374
2017-09-09T06:03:07.384Z,97367
2017-09-09T06:05:36.233Z,97373
2017-09-09T06:08:04.314Z,97362
2017-09-09T06:10:32.404Z,97371
2017-09-09T06:13:00.507Z,97371
2017-09-09T06:15:29.356Z,97361
2017-09-09T06:17:57.460Z,97360
2017-09-09T06:20:25.539Z,97356
2017-09-09T06:22:54.388Z,97357
2017-09-09T06:25:23.396Z,97363
2017-09-09T06:27:51.487Z,97360
2017-09-09T06:30:19.567Z,97359
2017-09-09T06:32:48.420Z,97353
2017-09-09T06:35:16.504Z,97361
2017-09-09T06:37:44.588Z,97348
2017-09-09T06:40:12.660Z,97350
2017-09-09T06:42:40.748Z,97354
2017-09-09T06:45:09.600Z,97347
2017-09-09T06:47:37.698Z,97349
2017-09-09T06:50:05.804Z,97341
2017-09-09T06:52:33.893Z,97349
2017-09-09T06:55:01.982Z,97340
2017-09-09T06:57:30.072Z,97353
2017-09-09T06:59:58.159Z,97335
2017-09-09T07:02:26.233Z,97335
2017-09-09T07:04:54.311Z,97342
2017-09-09T07:07:22.385Z,97338
2017-09-09T07:09:51.249Z,97328
2017-09-09T07:12:19.332Z,97331
2017-09-09T07:14:47.419Z,97322
2017-09-09T07:17:15.485Z,97325
2017-09-09T07:19:43.576Z,97332
2017-09-09T07:22:12.424Z,97331
2017-09-09T07:24:40.512Z,97344
2017-09-09T07:27:08.587Z,97347
2017-09-09T07:29:36.669Z,97351
2017-09-09T07:32:04.740Z,97352
2017-09-09T07:34:32.828Z,97357
2017-09-09T07:37:00.905Z,97366
2017-09-09T07:39:29.007Z,97370
2017-09-09T07:41:57.091Z,97369
2017-09-09T07:44:25.176Z,97377
2017-09-09T07:46:53.255Z,97382
2017-09-09T07:49:21.340Z,97387
2017-09-09T07:51:49.417Z,97385
2017-09-09T07:54:17.495Z,97390
2017-09-09T07:56:45.577Z,97394
2017-09-09T07:59:13.688Z,97388
2017-09-09T08:01:42.538Z,97395
2017-09-09T08:04:10.602Z,97395
2017-09-09T08:06:38.675Z,97408
2017-09-09T08:09:06.748Z,97415
2017-09-09T08:11:34.827Z,97417
2017-09-09T08:14:02.913Z,97426
2017-09-09T08:16:30.990Z,97414
2017-09-09T08:18:59.067Z,97419
2017-09-09T08:21:27.176Z,97419
2017-09-09T08:23:55.265Z,97422
2017-09-09T08:26:23.368Z,97420
2017-09-09T08:28:52.201Z,97430
2017-09-09T08:31:20.291Z,97432
2017-09-09T08:33:48.366Z,97440
2017-09-09T08:36:16.456Z,97433
2017-09-09T08:38:44.527Z,97441
2017-09-09T08:41:13.556Z,97469
2017-09-09T08:43:41.636Z,97470
2017-09-09T08:46:09.734Z,97483
2017-09-09T08:48:37.829Z,97478
2017-09-09T08:51:05.931Z,97451
2017-09-09T08:53:34.781Z,97463
2017-09-09T08:56:02.861Z,97468
2017-09-09T08:58:30.946Z,97459
2017-09-09T09:00:59.036Z,97456
2017-09-09T09:03:27.114Z,97455
2017-09-09T09:05:55.972Z,97474
2017-09-09T09:08:24.056Z,97485
2017-09-09T09:10:52.151Z,97479
2017-09-09T09:13:21.025Z,97502
2017-09-09T09:15:49.108Z,97500
2017-09-09T09:18:17.197Z,97522
2017-09-09T09:20:45.282Z,97542
2017-09-09T09:23:13.389Z,97540
2017-09-09T09:25:41.467Z,97544
2017-09-09T09:28:09.567Z,97534
2017-09-09T09:30:37.640Z,97536
2017-09-09T09:33:05.859Z,97533
2017-09-09T09:35:33.946Z,97539
2017-09-09T09:38:02.033Z,97520
2017-09-09T09:40:30.117Z,97526
2017-09-09T09:42:58.197Z,97533
2017-09-09T09:45:26.301Z,97535
2017-09-09T09:47:55.158Z,97535
2017-09-09T09:50:23.252Z,97539
2017-09-09T09:52:52.320Z,97538
2017-09-09T09:55:20.420Z,97529
2017-09-09T09:57:49.268Z,97531
2017-09-09T10:00:17.376Z,97524
2017-09-09T10:02:46.223Z,97522
2017-09-09T10:05:14.328Z,97530
2017-09-09T10:07:42.411Z,97527
2017-09-09T10:10:10.500Z,97542
2017-09-09T10:12:39.353Z,97532
2017-09-09T10:15:07.436Z,97538
2017-09-09T10:17:35.532Z,97535
2017-09-09T10:20:04.392Z,97540
2017-09-09T10:22:32.477Z,97544
2017-09-09T10:25:03.529Z,97551
2017-09-09T10:27:31.629Z,97553
2017-09-09T10:30:00.522Z,97561
2017-09-09T10:32:28.616Z,97549
2017-09-09T10:34:56.698Z,97549
2017-09-09T10:37:24.795Z,97552
2017-09-09T10:39:52.882Z,97555
2017-09-09T10:42:20.967Z,97555
2017-09-09T10:44:49.812Z,97550
2017-09-09T10:47:17.902Z,97558
2017-09-09T10:49:46.010Z,97559
2017-09-09T10:52:14.097Z,97564
2017-09-09T10:54:42.184Z,97566
2017-09-09T10:57:10.269Z,97562
2017-09-09T10:59:38.368Z,97559
2017-09-09T11:02:06.460Z,97564
2017-09-09T11:04:34.543Z,97560
2017-09-09T11:07:03.419Z,97558
2017-09-09T11:09:31.508Z,97547
2017-09-09T11:11:59.588Z,97551
2017-09-09T11:14:27.821Z,97550
2017-09-09T11:16:55.915Z,97542
2017-09-09T11:19:24.016Z,97546
2017-09-09T11:21:52.113Z,97543
2017-09-09T11:24:20.191Z,97544
2017-09-09T11:26:48.284Z,97543
2017-09-09T11:29:16.382Z,97545
2017-09-09T11:31:44.464Z,97551
2017-09-09T11:34:13.309Z,97563
2017-09-09T11:36:41.393Z,97579
2017-09-09T11:39:10.323Z,97572
2017-09-09T11:41:39.177Z,97557
2017-09-09T11:44:07.266Z,97562
2017-09-09T11:46:35.352Z,97555
2017-09-09T11:49:04.209Z,97524
2017-09-09T11:51:32.311Z,97509
2017-09-09T11:54:00.427Z,97532
2017-09-09T11:56:28.530Z,97554
2017-09-09T11:58:56.605Z,97547
2017-09-09T12:01:24.681Z,97544
2017-09-09T12:03:52.761Z,97546
2017-09-09T12:06:20.832Z,97557
2017-09-09T12:08:48.917Z,97561
2017-09-09T12:11:16.989Z,97571
2017-09-09T12:13:45.085Z,97582
2017-09-09T12:16:13.948Z,97576
2017-09-09T12:18:42.035Z,97577
2017-09-09T12:21:10.115Z,97580
2017-09-09T12:23:38.986Z,97576
2017-09-09T12:26:07.052Z,97570
2017-09-09T12:28:35.140Z,97550
2017-09-09T12:31:03.204Z,97547
2017-09-09T12:33:31.285Z,97554
2017-09-09T12:36:00.137Z,97544
2017-09-09T12:38:28.242Z,97543
2017-09-09T12:40:56.400Z,97540
2017-09-09T12:43:24.464Z,97550
2017-09-09T12:45:52.564Z,97552
2017-09-09T12:48:20.640Z,97537
2017-09-09T12:50:49.499Z,97529
2017-09-09T12:53:17.573Z,97526
2017-09-09T12:55:45.659Z,97523
2017-09-09T12:58:13.735Z,97533
2017-09-09T13:00:41.817Z,97537
2017-09-09T13:03:09.887Z,97535
2017-09-09T13:05:37.977Z,97542
2017-09-09T13:08:06.805Z,97533
2017-09-09T13:10:34.894Z,97540
2017-09-09T13:13:03.027Z,97537
2017-09-09T13:15:31.888Z,97529
2017-09-09T13:17:59.964Z,97534
2017-09-09T13:20:28.830Z,97531
2017-09-09T13:22:56.890Z,97534
2017-09-09T13:25:24.970Z,97540
2017-09-09T13:27:53.057Z,97539
2017-09-09T13:30:21.218Z,97553
2017-09-09T13:32:49.293Z,97543
2017-09-09T13:35:17.365Z,97544
2017-09-09T13:37:45.454Z,97545
2017-09-09T13:40:13.528Z,97545
2017-09-09T13:42:41.604Z,97557
2017-09-09T13:45:09.673Z,97542
2017-09-09T13:47:37.760Z,97546
2017-09-09T13:50:06.595Z,97535
2017-09-09T13:52:34.692Z,97548
2017-09-09T13:55:02.773Z,97549
2017-09-09T13:57:30.859Z,97559
2017-09-09T13:59:58.939Z,97559
2017-09-09T14:02:27.792Z,97562
2017-09-09T14:04:55.920Z,97562
2017-09-09T14:07:23.992Z,97566
2017-09-09T14:09:52.095Z,97571
2017-09-09T14:12:20.335Z,97566
2017-09-09T14:14:49.211Z,97571
2017-09-09T14:17:18.077Z,97563
2017-09-09T14:19:46.186Z,97551
2017-09-09T14:22:15.038Z,97544
2017-09-09T14:24:43.138Z,97534
2017-09-09T14:27:11.252Z,97524
2017-09-09T14:29:39.378Z,97521
2017-09-09T14:32:07.464Z,97525
2017-09-09T14:34:36.325Z,97528
2017-09-09T14:37:04.424Z,97519
2017-09-09T14:39:33.276Z,97502
2017-09-09T14:42:01.377Z,97497
2017-09-09T14:44:30.243Z,97500
2017-09-09T14:46:58.351Z,97509
2017-09-09T14:49:26.450Z,97511
2017-09-09T14:51:54.551Z,97503
2017-09-09T14:54:22.646Z,97529
2017-09-09T14:56:50.742Z,97530
2017-09-09T14:59:19.611Z,97543
2017-09-09T15:01:47.712Z,97538
2017-09-09T15:04:16.573Z,97541
2017-09-09T15:06:44.680Z,97551
2017-09-09T15:09:13.545Z,97549
2017-09-09T15:11:41.652Z,97540
2017-09-09T15:14:10.532Z,97541
2017-09-09T15:16:39.394Z,97551
2017-09-09T15:19:07.492Z,97529
2017-09-09T15:21:35.582Z,97529
2017-09-09T15:24:03.664Z,97535
2017-09-09T15:26:31.752Z,97532
2017-09-09T15:28:59.853Z,97539
2017-09-09T15:31:27.938Z,97539
2017-09-09T15:33:56.030Z,97549
2017-09-09T15:36:24.900Z,97545
2017-09-09T15:38:53.004Z,97555
2017-09-09T15:41:21.869Z,97554
2017-09-09T15:43:49.972Z,97547
2017-09-09T15:46:18.842Z,97555
2017-09-09T15:48:47.752Z,97553
2017-09-09T15:51:16.628Z,97553
2017-09-09T15:53:44.713Z,97549
2017-09-09T15:56:13.580Z,97552
2017-09-09T15:58:41.674Z,97565
2017-09-09T16:01:10.528Z,97554
2017-09-09T16:03:38.628Z,97554
2017-09-09T16:06:07.493Z,97553
2017-09-09T16:08:35.592Z,97549
2017-09-09T16:11:04.481Z,97534
2017-09-09T16:13:33.357Z,97536
2017-09-09T16:16:01.456Z,97542
2017-09-09T16:18:30.324Z,97539
2017-09-09T16:20:58.432Z,97540
2017-09-09T16:23:27.302Z,97549
2017-09-09T16:25:55.400Z,97541
2017-09-09T16:28:23.489Z,97542
2017-09-09T16:30:51.602Z,97543
2017-09-09T16:33:19.720Z,97531
2017-09-09T16:35:48.573Z,97541
2017-09-09T16:38:16.685Z,97531
2017-09-09T16:40:44.782Z,97539
2017-09-09T16:43:12.898Z,97544
2017-09-09T16:45:40.989Z,97540
2017-09-09T16:48:09.107Z,97542
2017-09-09T16:50:37.212Z,97544
2017-09-09T16:53:05.319Z,97543
2017-09-09T16:55:33.421Z,97547
2017-09-09T16:58:01.537Z,97556
2017-09-09T17:00:29.644Z,97544
2017-09-09T17:02:57.721Z,97559
2017-09-09T17:05:25.811Z,97560
2017-09-09T17:07:53.915Z,97568
2017-09-09T17:10:22.032Z,97562
2017-09-09T17:12:50.138Z,97569
2017-09-09T17:15:18.256Z,97568
2017-09-09T17:17:46.344Z,97569
2017-09-09T17:20:14.465Z,97566
2017-09-09T17:22:42.565Z,97563
2017-09-09T17:25:10.678Z,97575
2017-09-09T17:27:38.769Z,97558
2017-09-09T17:30:06.861Z,97561
2017-09-09T17:32:34.956Z,97556
2017-09-09T17:35:03.058Z,97550
2017-09-09T17:37:31.144Z,97557
2017-09-09T17:39:59.248Z,97565
2017-09-09T17:42:27.341Z,97560
2017-09-09T17:44:55.429Z,97568
2017-09-09T17:47:23.524Z,97575
2017-09-09T17:49:52.615Z,97577
2017-09-09T17:52:20.737Z,97575
2017-09-09T17:54:48.822Z,97574
2017-09-09T17:57:16.917Z,97569
2017-09-09T17:59:45.001Z,97589
2017-09-09T18:02:13.100Z,97586
2017-09-09T18:04:41.201Z,97595
2017-09-09T18:07:09.300Z,97598
2017-09-09T18:09:37.393Z,97598
2017-09-09T18:12:06.249Z,97592
2017-09-09T18:14:34.350Z,97615
2017-09-09T18:17:03.238Z,97598
2017-09-09T18:19:31.323Z,97607
2017-09-09T18:21:59.437Z,97596
2017-09-09T18:24:27.516Z,97594
2017-09-09T18:26:55.601Z,97611
2017-09-09T18:29:23.711Z,97612
2017-09-09T18:31:52.593Z,97626
2017-09-09T18:34:21.484Z,97626
2017-09-09T18:36:50.347Z,97631
2017-09-09T18:39:18.462Z,97639
2017-09-09T18:41:46.558Z,97647
2017-09-09T18:44:14.660Z,97643
2017-09-09T18:46:42.761Z,97640
2017-09-09T18:49:10.863Z,97634
2017-09-09T18:51:38.947Z,97624
2017-09-09T18:54:07.064Z,97617
2017-09-09T18:56:35.164Z,97624
2017-09-09T18:59:04.044Z,97637
2017-09-09T19:01:32.135Z,97655
2017-09-09T19:04:01.028Z,97656
2017-09-09T19:06:29.116Z,97659
2017-09-09T19:08:57.203Z,97653
2017-09-09T19:11:25.317Z,97657
2017-09-09T19:13:53.411Z,97656
2017-09-09T19:16:21.492Z,97651
2017-09-09T19:18:49.579Z,97648
2017-09-09T19:21:17.677Z,97650
2017-09-09T19:23:45.788Z,97659
2017-09-09T19:26:13.885Z,97650
2017-09-09T19:28:41.955Z,97657
2017-09-09T19:31:10.049Z,97665
2017-09-09T19:33:38.118Z,97662
2017-09-09T19:36:06.213Z,97680
2017-09-09T19:38:34.301Z,97674
2017-09-09T19:41:02.384Z,97672
2017-09-09T19:43:30.470Z,97677
2017-09-09T19:45:58.568Z,97672
2017-09-09T19:48:26.645Z,97676
2017-09-09T19:50:55.507Z,97670
2017-09-09T19:53:23.580Z,97667
2017-09-09T19:55:51.664Z,97676
2017-09-09T19:58:19.749Z,97676
2017-09-09T20:00:48.604Z,97669
2017-09-09T20:03:16.699Z,97670
2017-09-09T20:05:44.904Z,97675
2017-09-09T20:08:13.001Z,97675
2017-09-09T20:10:41.073Z,97674
2017-09-09T20:13:09.177Z,97676
2017-09-09T20:15:37.252Z,97677
2017-09-09T20:18:05.340Z,97676
2017-09-09T20:20:33.429Z,97682
2017-09-09T20:23:02.292Z,97679
2017-09-09T20:25:30.372Z,97689
2017-09-09T20:27:59.225Z,97691
2017-09-09T20:30:27.309Z,97689
2017-09-09T20:32:55.395Z,97692
2017-09-09T20:35:23.480Z,97693
2017-09-09T20:37:51.568Z,97700
2017-09-09T20:40:19.647Z,97694
2017-09-09T20:42:48.495Z,97703
2017-09-09T20:45:16.580Z,97696
2017-09-09T20:47:44.663Z,97706
2017-09-09T20:50:13.508Z,97702
2017-09-09T20:52:41.605Z,97710
2017-09-09T20:55:09.703Z,97704
2017-09-09T20:57:38.558Z,97715
2017-09-09T21:00:06.648Z,97705
2017-09-09T21:02:34.745Z,97703
2017-09-09T21:05:03.588Z,97700
2017-09-09T21:07:31.700Z,97703
2017-09-09T21:09:59.772Z,97706
2017-09-09T21:12:28.662Z,97713
2017-09-09T21:14:56.746Z,97706
2017-09-09T21:17:24.823Z,97708
2017-09-09T21:19:52.938Z,97703
2017-09-09T21:22:21.025Z,97698
2017-09-09T21:24:49.119Z,97703
2017-09-09T21:27:17.201Z,97710
2017-09-09T21:29:45.288Z,97700
2017-09-09T21:32:13.364Z,97696
2017-09-09T21:34:41.448Z,97699
2017-09-09T21:37:09.520Z,97700
2017-09-09T21:39:37.629Z,97711
2017-09-09T21:42:05.726Z,97702
2017-09-09T21:44:33.816Z,97703
2017-09-09T21:47:01.894Z,97709
2017-09-09T21:49:29.988Z,97709
2017-09-09T21:51:58.070Z,97714
2017-09-09T21:54:26.168Z,97724
2017-09-09T21:56:54.247Z,97714
2017-09-09T21:59:22.338Z,97712
2017-09-09T22:01:50.416Z,97708
2017-09-09T22:04:18.500Z,97709
2017-09-09T22:06:46.580Z,97709
2017-09-09T22:09:15.432Z,97716
2017-09-09T22:11:43.524Z,97707
2017-09-09T22:14:11.612Z,97708
2017-09-09T22:16:40.456Z,97710
2017-09-09T22:19:08.536Z,97708
2017-09-09T22:21:36.620Z,97711
2017-09-09T22:24:04.709Z,97710
2017-09-09T22:26:33.551Z,97714
2017-09-09T22:29:01.651Z,97705
2017-09-09T22:31:29.717Z,97703
2017-09-09T22:33:57.808Z,97709
2017-09-09T22:36:25.896Z,97695
2017-09-09T22:38:53.985Z,97702
2017-09-09T22:41:22.064Z,97699
2017-09-09T22:43:50.149Z,97711
2017-09-09T22:46:18.229Z,97707
2017-09-09T22:48:46.316Z,97693
2017-09-09T22:51:14.408Z,97698
2017-09-09T22:53:42.492Z,97688
2017-09-09T22:56:10.573Z,97691
2017-09-09T22:58:38.648Z,97702
2017-09-09T23:01:06.728Z,97703
2017-09-09T23:03:35.581Z,97697
2017-09-09T23:06:03.660Z,97700
2017-09-09T23:08:31.760Z,97700
2017-09-09T23:10:59.837Z,97690
2017-09-09T23:13:29.041Z,97700
2017-09-09T23:15:57.167Z,97689
2017-09-09T23:18:25.265Z,97700
2017-09-09T23:20:53.344Z,97701
2017-09-09T23:23:21.435Z,97693
2017-09-09T23:25:49.512Z,97697
2017-09-09T23:28:17.612Z,97699
2017-09-09T23:30:45.800Z,97697
2017-09-09T23:33:13.896Z,97685
2017-09-09T23:35:41.980Z,97678
2017-09-09T23:38:10.079Z,97684
2017-09-09T23:40:38.917Z,97686
2017-09-09T23:43:07.017Z,97671
2017-09-09T23:45:35.151Z,97679
2017-09-09T23:48:03.243Z,97686
2017-09-09T23:50:31.327Z,97676
2017-09-09T23:52:59.444Z,97676
2017-09-09T23:55:27.571Z,97682
2017-09-09T23:57:55.788Z,97687
